sensor_id;sensor_type;location;lat;lon;timestamp;P1;durP1;ratioP1;P2;durP2;ratioP2
1993;SDS011;998;49.906;10.908;2023-02-28T00:01:27;8.33;;;5.33;;
1993;SDS011;998;49.906;10.908;2023-02-28T00:03:55;8.37;;;4.27;;
1993;SDS011;998;49.906;10.908;2023-02-28T00:06:22;7.87;;;4.43;;
1993;SDS011;998;49.906;10.908;2023-02-28T00:08:50;8.13;;;3.87;;
1993;SDS011;998;49.906;10.908;2023-02-28T00:11:18;5.10;;;3.90;;
1993;SDS011;998;49.906;10.908;2023-02-28T00:13:45;18.07;;;8.07;;
1993;SDS011;998;49.906;10.908;2023-02-28T00:16:15;13.40;;;7.50;;
1993;SDS011;998;49.906;10.908;2023-02-28T00:18:44;7.33;;;4.30;;
1993;SDS011;998;49.906;10.908;2023-02-28T00:21:13;8.67;;;5.13;;
1993;SDS011;998;49.906;10.908;2023-02-28T00:23:40;5.53;;;3.50;;
1993;SDS011;998;49.906;10.908;2023-02-28T00:26:08;6.03;;;3.63;;
1993;SDS011;998;49.906;10.908;2023-02-28T00:28:36;4.83;;;2.93;;
1993;SDS011;998;49.906;10.908;2023-02-28T00:31:04;6.17;;;3.07;;
1993;SDS011;998;49.906;10.908;2023-02-28T00:33:33;5.17;;;2.97;;
1993;SDS011;998;49.906;10.908;2023-02-28T00:36:04;4.60;;;2.60;;
1993;SDS011;998;49.906;10.908;2023-02-28T00:38:33;7.20;;;3.13;;
1993;SDS011;998;49.906;10.908;2023-02-28T00:41:00;4.73;;;2.83;;
1993;SDS011;998;49.906;10.908;2023-02-28T00:43:30;4.80;;;3.40;;
1993;SDS011;998;49.906;10.908;2023-02-28T00:45:58;5.00;;;3.17;;
1993;SDS011;998;49.906;10.908;2023-02-28T00:48:26;8.17;;;4.17;;
1993;SDS011;998;49.906;10.908;2023-02-28T00:50:55;3.90;;;2.47;;
1993;SDS011;998;49.906;10.908;2023-02-28T00:53:22;6.40;;;3.30;;
1993;SDS011;998;49.906;10.908;2023-02-28T00:55:50;6.43;;;3.08;;
1993;SDS011;998;49.906;10.908;2023-02-28T00:58:17;6.13;;;4.10;;
1993;SDS011;998;49.906;10.908;2023-02-28T01:00:45;5.27;;;3.20;;
1993;SDS011;998;49.906;10.908;2023-02-28T01:03:14;5.60;;;3.73;;
1993;SDS011;998;49.906;10.908;2023-02-28T01:05:41;6.20;;;2.97;;
1993;SDS011;998;49.906;10.908;2023-02-28T01:08:10;6.10;;;3.43;;
1993;SDS011;998;49.906;10.908;2023-02-28T01:10:39;7.75;;;4.20;;
1993;SDS011;998;49.906;10.908;2023-02-28T01:13:06;7.43;;;3.93;;
1993;SDS011;998;49.906;10.908;2023-02-28T01:15:34;6.40;;;3.50;;
1993;SDS011;998;49.906;10.908;2023-02-28T01:18:01;6.30;;;3.47;;
1993;SDS011;998;49.906;10.908;2023-02-28T01:20:29;7.10;;;3.50;;
1993;SDS011;998;49.906;10.908;2023-02-28T01:22:56;6.23;;;3.07;;
1993;SDS011;998;49.906;10.908;2023-02-28T01:25:25;5.90;;;3.70;;
1993;SDS011;998;49.906;10.908;2023-02-28T01:27:52;4.27;;;2.70;;
1993;SDS011;998;49.906;10.908;2023-02-28T01:30:20;6.23;;;3.43;;
1993;SDS011;998;49.906;10.908;2023-02-28T01:32:47;6.97;;;4.77;;
1993;SDS011;998;49.906;10.908;2023-02-28T01:35:16;14.27;;;5.90;;
1993;SDS011;998;49.906;10.908;2023-02-28T01:37:43;6.40;;;4.03;;
1993;SDS011;998;49.906;10.908;2023-02-28T01:40:12;6.87;;;3.27;;
1993;SDS011;998;49.906;10.908;2023-02-28T01:42:41;5.80;;;3.20;;
1993;SDS011;998;49.906;10.908;2023-02-28T01:45:17;4.70;;;3.30;;
1993;SDS011;998;49.906;10.908;2023-02-28T01:47:48;6.37;;;3.40;;
1993;SDS011;998;49.906;10.908;2023-02-28T01:50:19;6.63;;;3.77;;
1993;SDS011;998;49.906;10.908;2023-02-28T01:52:49;7.33;;;3.83;;
1993;SDS011;998;49.906;10.908;2023-02-28T01:55:18;5.47;;;3.47;;
1993;SDS011;998;49.906;10.908;2023-02-28T01:57:50;7.23;;;3.57;;
1993;SDS011;998;49.906;10.908;2023-02-28T02:00:21;8.30;;;3.90;;
1993;SDS011;998;49.906;10.908;2023-02-28T02:02:56;7.80;;;4.53;;
1993;SDS011;998;49.906;10.908;2023-02-28T02:05:27;6.97;;;4.03;;
1993;SDS011;998;49.906;10.908;2023-02-28T02:07:57;6.27;;;3.80;;
1993;SDS011;998;49.906;10.908;2023-02-28T02:10:29;4.80;;;3.27;;
1993;SDS011;998;49.906;10.908;2023-02-28T02:13:08;5.43;;;4.00;;
1993;SDS011;998;49.906;10.908;2023-02-28T02:15:56;5.07;;;3.83;;
1993;SDS011;998;49.906;10.908;2023-02-28T02:18:51;13.13;;;4.03;;
1993;SDS011;998;49.906;10.908;2023-02-28T02:24:49;6.63;;;2.90;;
1993;SDS011;998;49.906;10.908;2023-02-28T02:27:49;6.50;;;3.17;;
1993;SDS011;998;49.906;10.908;2023-02-28T02:36:47;7.20;;;3.53;;
1993;SDS011;998;49.906;10.908;2023-02-28T02:39:18;5.07;;;3.03;;
1993;SDS011;998;49.906;10.908;2023-02-28T02:41:53;10.00;;;3.37;;
1993;SDS011;998;49.906;10.908;2023-02-28T02:44:23;11.03;;;3.13;;
1993;SDS011;998;49.906;10.908;2023-02-28T02:46:54;4.73;;;2.90;;
1993;SDS011;998;49.906;10.908;2023-02-28T02:49:28;4.50;;;2.90;;
1993;SDS011;998;49.906;10.908;2023-02-28T02:52:00;5.40;;;3.10;;
1993;SDS011;998;49.906;10.908;2023-02-28T02:54:31;3.97;;;2.87;;
1993;SDS011;998;49.906;10.908;2023-02-28T02:57:03;10.20;;;3.30;;
1993;SDS011;998;49.906;10.908;2023-02-28T02:59:33;5.40;;;3.23;;
1993;SDS011;998;49.906;10.908;2023-02-28T03:02:04;4.32;;;3.10;;
1993;SDS011;998;49.906;10.908;2023-02-28T03:04:36;4.40;;;2.67;;
1993;SDS011;998;49.906;10.908;2023-02-28T03:07:08;4.23;;;3.03;;
1993;SDS011;998;49.906;10.908;2023-02-28T03:09:36;4.87;;;3.50;;
1993;SDS011;998;49.906;10.908;2023-02-28T03:12:04;5.43;;;3.00;;
1993;SDS011;998;49.906;10.908;2023-02-28T03:14:45;4.50;;;2.85;;
1993;SDS011;998;49.906;10.908;2023-02-28T03:17:35;7.00;;;3.80;;
1993;SDS011;998;49.906;10.908;2023-02-28T03:20:30;6.80;;;2.53;;
1993;SDS011;998;49.906;10.908;2023-02-28T03:23:07;7.03;;;3.75;;
1993;SDS011;998;49.906;10.908;2023-02-28T03:25:45;4.90;;;3.20;;
1993;SDS011;998;49.906;10.908;2023-02-28T03:28:22;6.50;;;3.60;;
1993;SDS011;998;49.906;10.908;2023-02-28T03:30:59;3.95;;;2.80;;
1993;SDS011;998;49.906;10.908;2023-02-28T03:33:35;6.33;;;2.93;;
1993;SDS011;998;49.906;10.908;2023-02-28T03:36:09;5.33;;;2.60;;
1993;SDS011;998;49.906;10.908;2023-02-28T03:38:39;6.70;;;3.65;;
1993;SDS011;998;49.906;10.908;2023-02-28T03:41:12;6.13;;;3.00;;
1993;SDS011;998;49.906;10.908;2023-02-28T03:43:44;5.00;;;2.90;;
1993;SDS011;998;49.906;10.908;2023-02-28T03:46:18;5.80;;;2.97;;
1993;SDS011;998;49.906;10.908;2023-02-28T03:48:51;5.95;;;3.60;;
1993;SDS011;998;49.906;10.908;2023-02-28T03:51:24;4.77;;;2.57;;
1993;SDS011;998;49.906;10.908;2023-02-28T03:53:54;4.68;;;3.15;;
1993;SDS011;998;49.906;10.908;2023-02-28T03:56:27;5.80;;;2.90;;
1993;SDS011;998;49.906;10.908;2023-02-28T03:59:02;4.32;;;3.67;;
1993;SDS011;998;49.906;10.908;2023-02-28T04:01:35;6.53;;;3.20;;
1993;SDS011;998;49.906;10.908;2023-02-28T04:04:06;4.77;;;2.80;;
1993;SDS011;998;49.906;10.908;2023-02-28T04:06:35;8.87;;;3.80;;
1993;SDS011;998;49.906;10.908;2023-02-28T04:09:03;4.65;;;3.10;;
1993;SDS011;998;49.906;10.908;2023-02-28T04:11:32;6.53;;;3.55;;
1993;SDS011;998;49.906;10.908;2023-02-28T04:14:01;6.10;;;3.15;;
1993;SDS011;998;49.906;10.908;2023-02-28T04:16:30;5.70;;;3.57;;
1993;SDS011;998;49.906;10.908;2023-02-28T04:18:58;6.13;;;3.30;;
1993;SDS011;998;49.906;10.908;2023-02-28T04:21:28;5.07;;;3.50;;
1993;SDS011;998;49.906;10.908;2023-02-28T04:23:58;6.30;;;3.90;;
1993;SDS011;998;49.906;10.908;2023-02-28T04:26:27;6.50;;;3.80;;
1993;SDS011;998;49.906;10.908;2023-02-28T04:28:56;6.90;;;3.97;;
1993;SDS011;998;49.906;10.908;2023-02-28T04:31:23;5.50;;;3.67;;
1993;SDS011;998;49.906;10.908;2023-02-28T04:33:50;6.47;;;3.17;;
1993;SDS011;998;49.906;10.908;2023-02-28T04:36:18;8.15;;;3.88;;
1993;SDS011;998;49.906;10.908;2023-02-28T04:38:45;8.60;;;3.80;;
1993;SDS011;998;49.906;10.908;2023-02-28T04:41:14;6.25;;;3.72;;
1993;SDS011;998;49.906;10.908;2023-02-28T04:43:42;5.55;;;3.90;;
1993;SDS011;998;49.906;10.908;2023-02-28T04:46:10;6.07;;;3.85;;
1993;SDS011;998;49.906;10.908;2023-02-28T04:48:38;9.05;;;3.60;;
1993;SDS011;998;49.906;10.908;2023-02-28T04:51:06;13.77;;;5.40;;
1993;SDS011;998;49.906;10.908;2023-02-28T04:53:35;12.17;;;4.63;;
1993;SDS011;998;49.906;10.908;2023-02-28T04:56:03;5.90;;;3.73;;
1993;SDS011;998;49.906;10.908;2023-02-28T04:58:34;6.65;;;3.78;;
1993;SDS011;998;49.906;10.908;2023-02-28T05:01:01;4.75;;;3.17;;
1993;SDS011;998;49.906;10.908;2023-02-28T05:03:38;8.88;;;3.85;;
1993;SDS011;998;49.906;10.908;2023-02-28T05:06:06;5.70;;;3.20;;
1993;SDS011;998;49.906;10.908;2023-02-28T05:08:34;5.35;;;3.47;;
1993;SDS011;998;49.906;10.908;2023-02-28T05:11:01;8.57;;;4.15;;
1993;SDS011;998;49.906;10.908;2023-02-28T05:13:29;5.90;;;3.72;;
1993;SDS011;998;49.906;10.908;2023-02-28T05:15:58;7.43;;;3.73;;
1993;SDS011;998;49.906;10.908;2023-02-28T05:18:25;5.73;;;3.50;;
1993;SDS011;998;49.906;10.908;2023-02-28T05:20:53;9.15;;;4.68;;
1993;SDS011;998;49.906;10.908;2023-02-28T05:23:20;5.53;;;3.80;;
1993;SDS011;998;49.906;10.908;2023-02-28T05:25:49;6.30;;;3.35;;
1993;SDS011;998;49.906;10.908;2023-02-28T05:28:17;6.72;;;3.55;;
1993;SDS011;998;49.906;10.908;2023-02-28T05:30:44;7.15;;;4.07;;
1993;SDS011;998;49.906;10.908;2023-02-28T05:33:13;8.23;;;4.18;;
1993;SDS011;998;49.906;10.908;2023-02-28T05:35:41;9.30;;;4.10;;
1993;SDS011;998;49.906;10.908;2023-02-28T05:38:09;5.70;;;3.30;;
1993;SDS011;998;49.906;10.908;2023-02-28T05:40:37;7.20;;;4.78;;
1993;SDS011;998;49.906;10.908;2023-02-28T05:43:05;8.70;;;3.90;;
1993;SDS011;998;49.906;10.908;2023-02-28T05:45:34;5.85;;;3.42;;
1993;SDS011;998;49.906;10.908;2023-02-28T05:48:02;7.45;;;4.75;;
1993;SDS011;998;49.906;10.908;2023-02-28T05:50:31;7.10;;;4.07;;
1993;SDS011;998;49.906;10.908;2023-02-28T05:52:58;7.50;;;3.80;;
1993;SDS011;998;49.906;10.908;2023-02-28T05:55:26;7.10;;;4.55;;
1993;SDS011;998;49.906;10.908;2023-02-28T05:57:53;7.78;;;4.07;;
1993;SDS011;998;49.906;10.908;2023-02-28T06:00:21;6.88;;;4.88;;
1993;SDS011;998;49.906;10.908;2023-02-28T06:02:49;6.28;;;3.92;;
1993;SDS011;998;49.906;10.908;2023-02-28T06:05:18;7.00;;;4.18;;
1993;SDS011;998;49.906;10.908;2023-02-28T06:07:47;8.60;;;4.10;;
1993;SDS011;998;49.906;10.908;2023-02-28T06:10:14;5.90;;;4.03;;
1993;SDS011;998;49.906;10.908;2023-02-28T06:12:42;6.27;;;3.87;;
1993;SDS011;998;49.906;10.908;2023-02-28T06:15:11;6.30;;;4.17;;
1993;SDS011;998;49.906;10.908;2023-02-28T06:17:39;7.97;;;4.70;;
1993;SDS011;998;49.906;10.908;2023-02-28T06:20:07;8.30;;;3.97;;
1993;SDS011;998;49.906;10.908;2023-02-28T06:22:38;11.63;;;4.43;;
1993;SDS011;998;49.906;10.908;2023-02-28T06:25:07;8.88;;;5.13;;
1993;SDS011;998;49.906;10.908;2023-02-28T06:27:35;9.82;;;5.50;;
1993;SDS011;998;49.906;10.908;2023-02-28T06:30:03;6.25;;;3.55;;
1993;SDS011;998;49.906;10.908;2023-02-28T06:32:32;7.63;;;4.80;;
1993;SDS011;998;49.906;10.908;2023-02-28T06:34:59;11.23;;;5.70;;
1993;SDS011;998;49.906;10.908;2023-02-28T06:37:26;7.83;;;4.20;;
1993;SDS011;998;49.906;10.908;2023-02-28T06:39:54;10.50;;;6.07;;
1993;SDS011;998;49.906;10.908;2023-02-28T06:42:23;15.02;;;6.15;;
1993;SDS011;998;49.906;10.908;2023-02-28T06:44:53;9.85;;;4.82;;
1993;SDS011;998;49.906;10.908;2023-02-28T06:47:21;6.40;;;5.03;;
1993;SDS011;998;49.906;10.908;2023-02-28T06:49:49;9.40;;;5.67;;
1993;SDS011;998;49.906;10.908;2023-02-28T06:52:17;7.43;;;4.70;;
1993;SDS011;998;49.906;10.908;2023-02-28T06:54:44;13.50;;;6.87;;
1993;SDS011;998;49.906;10.908;2023-02-28T06:57:11;6.85;;;4.97;;
1993;SDS011;998;49.906;10.908;2023-02-28T06:59:40;11.07;;;6.07;;
1993;SDS011;998;49.906;10.908;2023-02-28T07:02:08;9.32;;;4.88;;
1993;SDS011;998;49.906;10.908;2023-02-28T07:04:35;8.07;;;5.70;;
1993;SDS011;998;49.906;10.908;2023-02-28T07:07:05;7.50;;;4.95;;
1993;SDS011;998;49.906;10.908;2023-02-28T07:09:33;8.57;;;6.03;;
1993;SDS011;998;49.906;10.908;2023-02-28T07:12:00;10.18;;;5.80;;
1993;SDS011;998;49.906;10.908;2023-02-28T07:14:28;10.73;;;6.30;;
1993;SDS011;998;49.906;10.908;2023-02-28T07:16:56;11.82;;;6.05;;
1993;SDS011;998;49.906;10.908;2023-02-28T07:19:24;8.23;;;5.35;;
1993;SDS011;998;49.906;10.908;2023-02-28T07:21:51;10.03;;;5.73;;
1993;SDS011;998;49.906;10.908;2023-02-28T07:24:19;8.50;;;6.03;;
1993;SDS011;998;49.906;10.908;2023-02-28T07:26:48;9.53;;;5.20;;
1993;SDS011;998;49.906;10.908;2023-02-28T07:29:16;8.75;;;5.30;;
1993;SDS011;998;49.906;10.908;2023-02-28T07:31:43;8.97;;;5.73;;
1993;SDS011;998;49.906;10.908;2023-02-28T07:34:13;14.10;;;7.50;;
1993;SDS011;998;49.906;10.908;2023-02-28T07:36:40;9.82;;;5.90;;
1993;SDS011;998;49.906;10.908;2023-02-28T07:39:08;12.80;;;6.00;;
1993;SDS011;998;49.906;10.908;2023-02-28T07:41:35;8.83;;;5.77;;
1993;SDS011;998;49.906;10.908;2023-02-28T07:44:08;11.43;;;5.75;;
1993;SDS011;998;49.906;10.908;2023-02-28T07:46:35;12.20;;;6.00;;
1993;SDS011;998;49.906;10.908;2023-02-28T07:49:03;11.33;;;6.93;;
1993;SDS011;998;49.906;10.908;2023-02-28T07:51:33;12.05;;;6.40;;
1993;SDS011;998;49.906;10.908;2023-02-28T07:54:00;11.17;;;6.73;;
1993;SDS011;998;49.906;10.908;2023-02-28T07:56:28;9.63;;;5.67;;
1993;SDS011;998;49.906;10.908;2023-02-28T07:58:55;10.57;;;6.23;;
1993;SDS011;998;49.906;10.908;2023-02-28T08:01:23;10.27;;;5.90;;
1993;SDS011;998;49.906;10.908;2023-02-28T08:03:50;16.77;;;8.90;;
1993;SDS011;998;49.906;10.908;2023-02-28T08:06:20;11.93;;;7.40;;
1993;SDS011;998;49.906;10.908;2023-02-28T08:08:50;12.63;;;7.60;;
1993;SDS011;998;49.906;10.908;2023-02-28T08:11:19;10.60;;;6.00;;
1993;SDS011;998;49.906;10.908;2023-02-28T08:13:46;12.90;;;6.47;;
1993;SDS011;998;49.906;10.908;2023-02-28T08:16:14;12.20;;;7.00;;
1993;SDS011;998;49.906;10.908;2023-02-28T08:18:46;11.10;;;7.40;;
1993;SDS011;998;49.906;10.908;2023-02-28T08:21:13;23.37;;;9.17;;
1993;SDS011;998;49.906;10.908;2023-02-28T08:23:41;9.80;;;4.97;;
1993;SDS011;998;49.906;10.908;2023-02-28T08:26:09;14.50;;;7.60;;
1993;SDS011;998;49.906;10.908;2023-02-28T08:28:37;9.10;;;5.77;;
1993;SDS011;998;49.906;10.908;2023-02-28T08:31:08;9.40;;;6.00;;
1993;SDS011;998;49.906;10.908;2023-02-28T08:33:36;10.07;;;6.47;;
1993;SDS011;998;49.906;10.908;2023-02-28T08:36:04;11.77;;;7.50;;
1993;SDS011;998;49.906;10.908;2023-02-28T08:38:32;12.93;;;6.90;;
1993;SDS011;998;49.906;10.908;2023-02-28T08:41:00;10.10;;;6.10;;
1993;SDS011;998;49.906;10.908;2023-02-28T08:43:32;13.70;;;6.30;;
1993;SDS011;998;49.906;10.908;2023-02-28T08:45:59;13.43;;;5.77;;
1993;SDS011;998;49.906;10.908;2023-02-28T08:48:27;12.73;;;7.27;;
1993;SDS011;998;49.906;10.908;2023-02-28T08:50:55;8.77;;;6.27;;
1993;SDS011;998;49.906;10.908;2023-02-28T08:53:23;8.97;;;5.80;;
1993;SDS011;998;49.906;10.908;2023-02-28T08:55:57;15.93;;;7.07;;
1993;SDS011;998;49.906;10.908;2023-02-28T08:58:25;9.17;;;6.97;;
1993;SDS011;998;49.906;10.908;2023-02-28T09:00:54;12.23;;;7.73;;
1993;SDS011;998;49.906;10.908;2023-02-28T09:03:22;13.17;;;6.70;;
1993;SDS011;998;49.906;10.908;2023-02-28T09:05:53;8.73;;;6.13;;
1993;SDS011;998;49.906;10.908;2023-02-28T09:08:21;7.30;;;4.80;;
1993;SDS011;998;49.906;10.908;2023-02-28T09:10:49;8.67;;;3.70;;
1993;SDS011;998;49.906;10.908;2023-02-28T09:13:22;5.60;;;3.93;;
1993;SDS011;998;49.906;10.908;2023-02-28T09:15:49;7.33;;;4.97;;
1993;SDS011;998;49.906;10.908;2023-02-28T09:18:17;11.27;;;6.03;;
1993;SDS011;998;49.906;10.908;2023-02-28T09:20:44;7.40;;;5.27;;
1993;SDS011;998;49.906;10.908;2023-02-28T09:23:11;9.97;;;5.83;;
1993;SDS011;998;49.906;10.908;2023-02-28T09:25:44;12.10;;;5.63;;
1993;SDS011;998;49.906;10.908;2023-02-28T09:28:12;10.43;;;6.03;;
1993;SDS011;998;49.906;10.908;2023-02-28T09:30:40;7.33;;;4.73;;
1993;SDS011;998;49.906;10.908;2023-02-28T09:33:07;6.10;;;4.67;;
1993;SDS011;998;49.906;10.908;2023-02-28T09:35:36;7.50;;;5.10;;
1993;SDS011;998;49.906;10.908;2023-02-28T09:38:03;10.87;;;5.43;;
1993;SDS011;998;49.906;10.908;2023-02-28T09:40:34;6.60;;;4.53;;
1993;SDS011;998;49.906;10.908;2023-02-28T09:43:03;6.60;;;4.73;;
1993;SDS011;998;49.906;10.908;2023-02-28T09:45:31;7.87;;;4.77;;
1993;SDS011;998;49.906;10.908;2023-02-28T09:48:03;8.53;;;4.70;;
1993;SDS011;998;49.906;10.908;2023-02-28T09:50:33;10.63;;;5.50;;
1993;SDS011;998;49.906;10.908;2023-02-28T09:53:06;9.87;;;5.33;;
1993;SDS011;998;49.906;10.908;2023-02-28T09:55:43;8.80;;;5.57;;
1993;SDS011;998;49.906;10.908;2023-02-28T09:58:16;8.47;;;5.07;;
1993;SDS011;998;49.906;10.908;2023-02-28T10:00:51;7.67;;;5.63;;
1993;SDS011;998;49.906;10.908;2023-02-28T10:03:27;9.40;;;4.80;;
1993;SDS011;998;49.906;10.908;2023-02-28T10:06:01;17.40;;;5.37;;
1993;SDS011;998;49.906;10.908;2023-02-28T10:08:40;9.93;;;5.90;;
1993;SDS011;998;49.906;10.908;2023-02-28T10:11:15;8.07;;;5.10;;
1993;SDS011;998;49.906;10.908;2023-02-28T10:13:49;19.53;;;7.80;;
1993;SDS011;998;49.906;10.908;2023-02-28T10:16:21;13.30;;;6.03;;
1993;SDS011;998;49.906;10.908;2023-02-28T10:18:52;6.77;;;4.30;;
1993;SDS011;998;49.906;10.908;2023-02-28T10:21:26;11.40;;;5.67;;
1993;SDS011;998;49.906;10.908;2023-02-28T10:23:59;8.67;;;4.60;;
1993;SDS011;998;49.906;10.908;2023-02-28T10:26:30;9.00;;;4.87;;
1993;SDS011;998;49.906;10.908;2023-02-28T10:28:58;6.83;;;5.13;;
1993;SDS011;998;49.906;10.908;2023-02-28T10:31:27;9.20;;;5.70;;
1993;SDS011;998;49.906;10.908;2023-02-28T10:33:55;13.70;;;6.33;;
1993;SDS011;998;49.906;10.908;2023-02-28T10:36:22;8.73;;;5.73;;
1993;SDS011;998;49.906;10.908;2023-02-28T10:38:51;9.97;;;6.27;;
1993;SDS011;998;49.906;10.908;2023-02-28T10:41:26;13.53;;;5.20;;
1993;SDS011;998;49.906;10.908;2023-02-28T10:46:41;6.30;;;4.60;;
1993;SDS011;998;49.906;10.908;2023-02-28T10:49:13;10.77;;;6.50;;
1993;SDS011;998;49.906;10.908;2023-02-28T10:51:45;9.53;;;6.20;;
1993;SDS011;998;49.906;10.908;2023-02-28T10:54:17;8.40;;;5.30;;
1993;SDS011;998;49.906;10.908;2023-02-28T10:56:59;7.73;;;5.33;;
1993;SDS011;998;49.906;10.908;2023-02-28T10:59:34;7.50;;;5.50;;
1993;SDS011;998;49.906;10.908;2023-02-28T11:02:07;14.80;;;7.33;;
1993;SDS011;998;49.906;10.908;2023-02-28T11:04:57;7.10;;;5.43;;
1993;SDS011;998;49.906;10.908;2023-02-28T11:07:26;8.60;;;4.97;;
1993;SDS011;998;49.906;10.908;2023-02-28T11:09:54;6.90;;;5.60;;
1993;SDS011;998;49.906;10.908;2023-02-28T11:12:23;7.47;;;5.17;;
1993;SDS011;998;49.906;10.908;2023-02-28T11:14:54;6.10;;;5.00;;
1993;SDS011;998;49.906;10.908;2023-02-28T11:17:24;6.50;;;4.00;;
1993;SDS011;998;49.906;10.908;2023-02-28T11:19:55;9.33;;;5.47;;
1993;SDS011;998;49.906;10.908;2023-02-28T11:22:26;8.73;;;6.67;;
1993;SDS011;998;49.906;10.908;2023-02-28T11:24:56;10.67;;;6.73;;
1993;SDS011;998;49.906;10.908;2023-02-28T11:30:23;10.33;;;6.07;;
1993;SDS011;998;49.906;10.908;2023-02-28T11:32:52;9.20;;;5.30;;
1993;SDS011;998;49.906;10.908;2023-02-28T11:35:21;6.83;;;5.20;;
1993;SDS011;998;49.906;10.908;2023-02-28T11:37:53;11.10;;;6.10;;
1993;SDS011;998;49.906;10.908;2023-02-28T11:40:22;11.47;;;6.73;;
1993;SDS011;998;49.906;10.908;2023-02-28T11:42:57;8.70;;;5.73;;
1993;SDS011;998;49.906;10.908;2023-02-28T11:45:39;12.33;;;6.20;;
1993;SDS011;998;49.906;10.908;2023-02-28T11:48:17;7.67;;;5.83;;
1993;SDS011;998;49.906;10.908;2023-02-28T11:50:51;11.63;;;7.40;;
1993;SDS011;998;49.906;10.908;2023-02-28T11:53:39;8.67;;;6.00;;
1993;SDS011;998;49.906;10.908;2023-02-28T11:56:18;10.27;;;5.57;;
1993;SDS011;998;49.906;10.908;2023-02-28T11:58:53;9.07;;;6.70;;
1993;SDS011;998;49.906;10.908;2023-02-28T12:01:31;9.07;;;6.37;;
1993;SDS011;998;49.906;10.908;2023-02-28T12:04:12;10.20;;;7.40;;
1993;SDS011;998;49.906;10.908;2023-02-28T12:06:50;9.70;;;6.73;;
1993;SDS011;998;49.906;10.908;2023-02-28T12:12:23;7.77;;;5.83;;
1993;SDS011;998;49.906;10.908;2023-02-28T12:15:05;11.93;;;5.40;;
1993;SDS011;998;49.906;10.908;2023-02-28T12:17:58;7.40;;;5.90;;
1993;SDS011;998;49.906;10.908;2023-02-28T12:20:46;10.00;;;6.90;;
1993;SDS011;998;49.906;10.908;2023-02-28T12:23:33;8.53;;;6.30;;
1993;SDS011;998;49.906;10.908;2023-02-28T12:26:24;8.13;;;6.23;;
1993;SDS011;998;49.906;10.908;2023-02-28T12:29:02;9.77;;;8.17;;
1993;SDS011;998;49.906;10.908;2023-02-28T12:31:35;9.80;;;7.50;;
1993;SDS011;998;49.906;10.908;2023-02-28T12:34:05;9.50;;;6.47;;
1993;SDS011;998;49.906;10.908;2023-02-28T12:36:36;10.00;;;6.63;;
1993;SDS011;998;49.906;10.908;2023-02-28T12:39:06;9.43;;;7.63;;
1993;SDS011;998;49.906;10.908;2023-02-28T12:41:40;8.30;;;6.53;;
1993;SDS011;998;49.906;10.908;2023-02-28T12:44:11;7.80;;;6.17;;
1993;SDS011;998;49.906;10.908;2023-02-28T12:46:42;9.07;;;6.43;;
1993;SDS011;998;49.906;10.908;2023-02-28T12:49:15;10.20;;;6.10;;
1993;SDS011;998;49.906;10.908;2023-02-28T12:51:45;7.80;;;5.73;;
1993;SDS011;998;49.906;10.908;2023-02-28T12:54:15;7.40;;;5.33;;
1993;SDS011;998;49.906;10.908;2023-02-28T12:56:49;6.97;;;5.53;;
1993;SDS011;998;49.906;10.908;2023-02-28T12:59:23;12.67;;;7.53;;
1993;SDS011;998;49.906;10.908;2023-02-28T13:02:00;13.60;;;9.20;;
1993;SDS011;998;49.906;10.908;2023-02-28T13:04:52;8.23;;;5.73;;
1993;SDS011;998;49.906;10.908;2023-02-28T13:10:48;7.80;;;5.30;;
1993;SDS011;998;49.906;10.908;2023-02-28T13:13:21;12.63;;;6.10;;
1993;SDS011;998;49.906;10.908;2023-02-28T13:15:58;9.17;;;5.57;;
1993;SDS011;998;49.906;10.908;2023-02-28T13:18:28;8.40;;;5.67;;
1993;SDS011;998;49.906;10.908;2023-02-28T13:20:57;7.90;;;5.63;;
1993;SDS011;998;49.906;10.908;2023-02-28T13:23:37;9.67;;;5.53;;
1993;SDS011;998;49.906;10.908;2023-02-28T13:26:23;9.80;;;6.10;;
1993;SDS011;998;49.906;10.908;2023-02-28T13:29:30;9.27;;;5.63;;
1993;SDS011;998;49.906;10.908;2023-02-28T13:34:49;9.27;;;6.20;;
1993;SDS011;998;49.906;10.908;2023-02-28T13:38:13;14.10;;;10.07;;
1993;SDS011;998;49.906;10.908;2023-02-28T13:44:00;10.77;;;7.20;;
1993;SDS011;998;49.906;10.908;2023-02-28T13:46:31;10.73;;;7.50;;
1993;SDS011;998;49.906;10.908;2023-02-28T13:51:44;9.67;;;6.43;;
1993;SDS011;998;49.906;10.908;2023-02-28T13:54:16;8.60;;;6.13;;
1993;SDS011;998;49.906;10.908;2023-02-28T13:57:00;10.60;;;6.60;;
1993;SDS011;998;49.906;10.908;2023-02-28T13:59:35;9.90;;;6.30;;
1993;SDS011;998;49.906;10.908;2023-02-28T14:02:22;10.53;;;6.43;;
1993;SDS011;998;49.906;10.908;2023-02-28T14:05:01;11.07;;;7.03;;
1993;SDS011;998;49.906;10.908;2023-02-28T14:07:33;8.77;;;6.63;;
1993;SDS011;998;49.906;10.908;2023-02-28T14:10:07;8.20;;;5.90;;
1993;SDS011;998;49.906;10.908;2023-02-28T14:15:44;11.67;;;5.87;;
1993;SDS011;998;49.906;10.908;2023-02-28T14:18:22;7.57;;;6.80;;
1993;SDS011;998;49.906;10.908;2023-02-28T14:20:55;10.20;;;7.20;;
1993;SDS011;998;49.906;10.908;2023-02-28T14:23:33;9.50;;;5.97;;
1993;SDS011;998;49.906;10.908;2023-02-28T14:26:10;9.37;;;6.17;;
1993;SDS011;998;49.906;10.908;2023-02-28T14:28:53;9.53;;;6.77;;
1993;SDS011;998;49.906;10.908;2023-02-28T14:31:32;10.30;;;5.70;;
1993;SDS011;998;49.906;10.908;2023-02-28T14:34:11;10.80;;;6.17;;
1993;SDS011;998;49.906;10.908;2023-02-28T14:36:48;11.73;;;6.73;;
1993;SDS011;998;49.906;10.908;2023-02-28T14:39:19;8.67;;;5.93;;
1993;SDS011;998;49.906;10.908;2023-02-28T14:41:48;9.90;;;6.60;;
1993;SDS011;998;49.906;10.908;2023-02-28T14:44:16;9.60;;;5.83;;
1993;SDS011;998;49.906;10.908;2023-02-28T14:46:45;11.67;;;7.20;;
1993;SDS011;998;49.906;10.908;2023-02-28T14:49:17;9.10;;;5.87;;
1993;SDS011;998;49.906;10.908;2023-02-28T14:52:01;11.63;;;6.17;;
1993;SDS011;998;49.906;10.908;2023-02-28T14:54:31;8.83;;;6.17;;
1993;SDS011;998;49.906;10.908;2023-02-28T14:56:59;8.23;;;5.83;;
1993;SDS011;998;49.906;10.908;2023-02-28T14:59:27;9.63;;;5.80;;
1993;SDS011;998;49.906;10.908;2023-02-28T15:04:53;9.90;;;6.83;;
1993;SDS011;998;49.906;10.908;2023-02-28T15:07:21;8.73;;;6.13;;
1993;SDS011;998;49.906;10.908;2023-02-28T15:12:36;8.47;;;5.80;;
1993;SDS011;998;49.906;10.908;2023-02-28T15:15:05;9.10;;;6.10;;
1993;SDS011;998;49.906;10.908;2023-02-28T15:17:40;10.63;;;6.60;;
1993;SDS011;998;49.906;10.908;2023-02-28T15:20:12;7.90;;;5.70;;
1993;SDS011;998;49.906;10.908;2023-02-28T15:22:41;8.07;;;5.80;;
1993;SDS011;998;49.906;10.908;2023-02-28T15:25:10;11.63;;;6.37;;
1993;SDS011;998;49.906;10.908;2023-02-28T15:27:43;9.37;;;5.87;;
1993;SDS011;998;49.906;10.908;2023-02-28T15:30:15;9.30;;;5.30;;
1993;SDS011;998;49.906;10.908;2023-02-28T15:32:44;8.70;;;5.70;;
1993;SDS011;998;49.906;10.908;2023-02-28T15:35:20;10.67;;;6.70;;
1993;SDS011;998;49.906;10.908;2023-02-28T15:37:54;13.20;;;6.00;;
1993;SDS011;998;49.906;10.908;2023-02-28T15:40:27;10.53;;;6.13;;
1993;SDS011;998;49.906;10.908;2023-02-28T15:43:00;10.60;;;6.57;;
1993;SDS011;998;49.906;10.908;2023-02-28T15:45:38;8.47;;;6.30;;
1993;SDS011;998;49.906;10.908;2023-02-28T15:48:17;8.47;;;5.93;;
1993;SDS011;998;49.906;10.908;2023-02-28T15:50:50;8.53;;;5.50;;
1993;SDS011;998;49.906;10.908;2023-02-28T15:53:21;11.80;;;6.33;;
1993;SDS011;998;49.906;10.908;2023-02-28T15:55:54;9.10;;;5.53;;
1993;SDS011;998;49.906;10.908;2023-02-28T15:58:25;10.73;;;6.40;;
1993;SDS011;998;49.906;10.908;2023-02-28T16:01:07;11.23;;;6.53;;
1993;SDS011;998;49.906;10.908;2023-02-28T16:03:44;9.07;;;6.10;;
1993;SDS011;998;49.906;10.908;2023-02-28T16:06:26;17.60;;;5.93;;
1993;SDS011;998;49.906;10.908;2023-02-28T16:08:58;8.80;;;5.73;;
1993;SDS011;998;49.906;10.908;2023-02-28T16:11:25;11.70;;;5.30;;
1993;SDS011;998;49.906;10.908;2023-02-28T16:13:53;10.07;;;5.80;;
1993;SDS011;998;49.906;10.908;2023-02-28T16:16:23;9.63;;;6.43;;
1993;SDS011;998;49.906;10.908;2023-02-28T16:18:51;9.67;;;6.00;;